createdAt,value
2019-05-12T00:02:48.473Z,100610.34
2019-05-12T00:07:50.075Z,100612.58
2019-05-12T00:12:51.787Z,100605.67
2019-05-12T00:17:53.367Z,100613.59
2019-05-12T00:22:58.216Z,100621.69
2019-05-12T00:27:59.871Z,100626.80
2019-05-12T00:33:01.788Z,100628.25
2019-05-12T00:38:03.483Z,100629.56
2019-05-12T00:43:05.070Z,100633.42
2019-05-12T00:48:09.156Z,100657.49
2019-05-12T00:53:10.531Z,100661.42
2019-05-12T00:58:12.112Z,100674.55
2019-05-12T01:03:13.793Z,100679.41
2019-05-12T01:08:15.373Z,100688.79
2019-05-12T01:13:18.712Z,100693.34
2019-05-12T01:18:20.571Z,100702.59
2019-05-12T01:23:23.514Z,100695.33
2019-05-12T01:28:27.696Z,100704.42
2019-05-12T01:33:29.026Z,100700.34
2019-05-12T01:38:30.607Z,100710.41
2019-05-12T01:43:32.287Z,100719.47
2019-05-12T01:48:33.842Z,100725.00
2019-05-12T01:53:37.640Z,100728.99
2019-05-12T01:58:38.918Z,100737.56
2019-05-12T02:03:40.480Z,100749.02
2019-05-12T02:08:48.189Z,100750.98
2019-05-12T02:13:49.770Z,100754.92
2019-05-12T02:18:51.440Z,100756.55
2019-05-12T02:23:53.108Z,100754.59
2019-05-12T02:28:54.819Z,100763.06
2019-05-12T02:33:56.370Z,100777.02
2019-05-12T02:38:57.938Z,100777.84
2019-05-12T02:43:59.491Z,100784.13
2019-05-12T02:49:01.165Z,100787.72
2019-05-12T02:54:05.475Z,100802.58
2019-05-12T02:59:07.264Z,100811.76
2019-05-12T03:04:10.808Z,100821.14
2019-05-12T03:09:15.119Z,100822.81
2019-05-12T03:14:16.148Z,100821.64
2019-05-12T03:19:17.805Z,100823.91
2019-05-12T03:24:19.412Z,100819.53
2019-05-12T03:29:21.064Z,100826.39
2019-05-12T03:34:28.733Z,100837.02
2019-05-12T03:39:26.107Z,100841.16
2019-05-12T03:44:27.675Z,100856.78
2019-05-12T03:49:29.267Z,100853.56
2019-05-12T03:54:30.950Z,100851.83
2019-05-12T03:59:34.848Z,100865.79
2019-05-12T04:04:36.108Z,100890.94
2019-05-12T04:09:37.676Z,100911.70
2019-05-12T04:14:39.218Z,100921.12
2019-05-12T04:19:40.797Z,100933.13
2019-05-12T04:24:44.528Z,100943.53
2019-05-12T04:29:45.830Z,100953.66
2019-05-12T04:34:47.432Z,100961.98
2019-05-12T04:39:49.006Z,100982.56
2019-05-12T04:44:50.588Z,100993.41
2019-05-12T04:49:54.641Z,101010.70
2019-05-12T04:54:55.650Z,101020.93
2019-05-12T04:59:57.214Z,101027.23
2019-05-12T05:04:58.792Z,101038.20
2019-05-12T05:10:00.396Z,101038.72
2019-05-12T05:15:02.079Z,101045.64
2019-05-12T05:20:04.195Z,101053.98
2019-05-12T05:25:05.805Z,101065.30
2019-05-12T05:30:07.614Z,101079.47
2019-05-12T05:35:09.498Z,101076.15
2019-05-12T05:40:13.858Z,101085.81
2019-05-12T05:45:19.582Z,101099.14
2019-05-12T05:50:23.553Z,101099.96
2019-05-12T05:55:23.371Z,101116.03
2019-05-12T06:00:26.374Z,101127.59
2019-05-12T06:05:30.795Z,101147.47
2019-05-12T06:10:36.197Z,101154.88
2019-05-12T06:15:40.449Z,101166.43
2019-05-12T06:20:38.695Z,101179.27
2019-05-12T06:25:49.454Z,101187.13
2019-05-12T06:30:47.120Z,101185.83
2019-05-12T06:35:47.280Z,101200.14
2019-05-12T06:40:48.847Z,101198.70
2019-05-12T06:45:50.409Z,101202.16
2019-05-12T06:50:53.477Z,101208.58
2019-05-12T06:55:55.135Z,101220.51
2019-05-12T07:00:56.852Z,101213.01
2019-05-12T07:05:58.457Z,101212.41
2019-05-12T07:11:03.706Z,101214.08
2019-05-12T07:16:19.100Z,101213.84
2019-05-12T07:21:20.280Z,101220.85
2019-05-12T07:26:23.539Z,101234.80
2019-05-12T07:31:24.934Z,101225.98
2019-05-12T07:36:26.760Z,101243.73
2019-05-12T07:41:30.378Z,101256.84
2019-05-12T07:46:34.051Z,101261.95
2019-05-12T07:51:40.418Z,101265.05
2019-05-12T07:56:41.044Z,101263.73
2019-05-12T08:01:50.198Z,101271.72
2019-05-12T08:06:47.073Z,101267.52
2019-05-12T08:11:48.687Z,101274.33
2019-05-12T08:16:50.248Z,101280.88
2019-05-12T08:21:53.715Z,101299.02
2019-05-12T08:27:01.498Z,101290.41
2019-05-12T08:31:58.801Z,101290.39
2019-05-12T08:37:00.344Z,101298.73
2019-05-12T08:42:04.008Z,101308.84
2019-05-12T08:47:05.830Z,101317.20
2019-05-12T08:52:07.412Z,101312.03
2019-05-12T08:57:09.013Z,101321.51
2019-05-12T09:02:10.962Z,101339.65
2019-05-12T09:07:13.824Z,101340.53
2019-05-12T09:12:15.877Z,101338.89
2019-05-12T09:17:17.443Z,101345.29
2019-05-12T09:22:21.065Z,101344.00
2019-05-12T09:27:24.133Z,101337.58
2019-05-12T09:32:26.023Z,101343.97
2019-05-12T09:37:31.000Z,101341.42
2019-05-12T09:42:32.999Z,101352.61
2019-05-12T09:47:34.590Z,101362.20
2019-05-12T09:52:36.355Z,101357.19
2019-05-12T09:57:40.902Z,101384.77
2019-05-12T10:02:43.436Z,101368.17
2019-05-12T10:07:45.129Z,101367.35
2019-05-12T10:12:50.485Z,101364.58
2019-05-12T10:17:50.190Z,101383.38
2019-05-12T10:22:54.144Z,101376.73
2019-05-12T10:27:55.383Z,101376.59
2019-05-12T10:32:57.096Z,101383.13
2019-05-12T10:38:00.088Z,101388.09
2019-05-12T10:43:04.588Z,101386.84
2019-05-12T10:48:05.777Z,101384.52
2019-05-12T10:53:09.773Z,101389.22
2019-05-12T10:58:11.009Z,101385.99
2019-05-12T11:03:15.630Z,101379.78
2019-05-12T11:08:17.585Z,101396.70
2019-05-12T11:13:19.216Z,101386.99
2019-05-12T11:18:26.236Z,101388.84
2019-05-12T11:23:25.574Z,101401.51
2019-05-12T11:28:27.215Z,101391.65
2019-05-12T11:33:28.807Z,101398.84
2019-05-12T11:38:30.576Z,101394.66
2019-05-12T11:43:33.792Z,101398.70
2019-05-12T11:48:40.240Z,101405.75
2019-05-12T11:53:38.988Z,101406.09
2019-05-12T11:58:41.380Z,101403.20
2019-05-12T12:03:44.173Z,101420.58
2019-05-12T12:08:45.726Z,101429.50
2019-05-12T12:13:49.999Z,101420.25
2019-05-12T12:19:02.282Z,101423.50
2019-05-12T12:23:55.866Z,101444.81
2019-05-12T12:28:57.432Z,101435.66
2019-05-12T12:33:59.003Z,101443.82
2019-05-12T12:39:00.574Z,101444.61
2019-05-12T12:44:04.450Z,101461.47
2019-05-12T12:49:10.259Z,101455.38
2019-05-12T12:54:09.184Z,101461.87
2019-05-12T12:59:12.652Z,101458.76
2019-05-12T13:04:14.342Z,101447.31
2019-05-12T13:09:24.237Z,101457.59
2019-05-12T13:14:19.674Z,101467.13
2019-05-12T13:19:21.348Z,101469.75
2019-05-12T13:24:22.906Z,101474.81
2019-05-12T13:29:28.335Z,101469.72
2019-05-12T13:34:28.832Z,101474.93
2019-05-12T13:39:33.558Z,101473.61
2019-05-12T13:44:38.730Z,101478.97
2019-05-12T13:49:42.679Z,101470.84
2019-05-12T13:54:43.691Z,101477.08
2019-05-12T13:59:45.425Z,101472.73
2019-05-12T14:04:46.989Z,101472.02
2019-05-12T14:09:50.057Z,101475.04
2019-05-12T14:14:51.614Z,101488.53
2019-05-12T14:19:53.371Z,101508.16
2019-05-12T14:24:54.994Z,101491.27
2019-05-12T14:30:00.281Z,101488.78
2019-05-12T14:35:00.819Z,101488.70
2019-05-12T14:40:04.502Z,101496.34
2019-05-12T14:45:06.541Z,101493.48
2019-05-12T14:50:08.231Z,101490.30
2019-05-12T14:55:09.897Z,101493.90
2019-05-12T15:00:17.558Z,101494.93
2019-05-12T15:05:15.363Z,101494.05
2019-05-12T15:10:17.035Z,101485.20
2019-05-12T15:15:20.754Z,101492.99
2019-05-12T15:20:24.069Z,101496.55
2019-05-12T15:25:29.333Z,101496.30
2019-05-12T15:30:29.286Z,101501.33
2019-05-12T15:35:30.834Z,101499.50
2019-05-12T15:40:32.422Z,101506.09
2019-05-12T15:45:34.369Z,101509.61
2019-05-12T15:50:36.069Z,101517.19
2019-05-12T15:55:37.613Z,101516.59
2019-05-12T16:00:39.163Z,101506.05
2019-05-12T16:05:40.734Z,101520.13
2019-05-12T16:10:43.045Z,101532.49
2019-05-12T16:15:49.341Z,101536.74
2019-05-12T16:20:48.051Z,101528.83
2019-05-12T16:25:49.619Z,101529.75
2019-05-12T16:30:53.492Z,101534.13
2019-05-12T16:35:54.750Z,101530.62
2019-05-12T16:40:58.122Z,101532.42
2019-05-12T16:45:59.688Z,101542.47
2019-05-12T16:51:03.318Z,101535.33
2019-05-12T16:56:04.783Z,101538.97
2019-05-12T17:01:06.481Z,101551.27
2019-05-12T17:06:08.169Z,101552.21
2019-05-12T17:11:24.291Z,101551.78
2019-05-12T17:16:13.752Z,101562.07
2019-05-12T17:21:15.458Z,101560.22
2019-05-12T17:26:17.023Z,101556.78
2019-05-12T17:31:18.594Z,101559.18
2019-05-12T17:36:20.258Z,101569.60
2019-05-12T17:41:23.617Z,101585.16
2019-05-12T17:46:25.303Z,101581.40
2019-05-12T17:51:30.919Z,101583.03
2019-05-12T17:56:34.222Z,101591.72
2019-05-12T18:01:35.587Z,101595.31
2019-05-12T18:06:37.220Z,101598.78
2019-05-12T18:11:38.792Z,101609.30
2019-05-12T18:16:43.324Z,101613.56
2019-05-12T18:21:45.078Z,101625.84
2019-05-12T18:26:55.302Z,101624.95
2019-05-12T18:31:52.773Z,101632.43
2019-05-12T18:36:58.102Z,101639.05
2019-05-12T18:41:57.355Z,101659.63
2019-05-12T18:46:58.942Z,101656.81
2019-05-12T18:52:00.544Z,101671.81
2019-05-12T18:57:06.402Z,101680.39
2019-05-12T19:02:05.786Z,101692.07
2019-05-12T19:07:07.366Z,101697.03
2019-05-12T19:12:17.843Z,101703.67
2019-05-12T19:17:14.315Z,101719.82
2019-05-12T19:22:15.893Z,101725.00
2019-05-12T19:27:20.759Z,101733.87
2019-05-12T19:32:21.095Z,101750.77
2019-05-12T19:37:26.417Z,101757.64
2019-05-12T19:42:26.200Z,101764.95
2019-05-12T19:47:33.130Z,101769.19
2019-05-12T19:52:31.247Z,101768.84
2019-05-12T19:57:33.504Z,101778.85
2019-05-12T20:02:35.391Z,101771.41
2019-05-12T20:07:36.961Z,101778.83
2019-05-12T20:12:38.595Z,101782.06
2019-05-12T20:17:40.171Z,101791.05
2019-05-12T20:22:43.934Z,101796.48
2019-05-12T20:27:45.279Z,101802.50
2019-05-12T20:32:46.842Z,101808.72
2019-05-12T20:37:52.990Z,101812.86
2019-05-12T20:43:07.288Z,101814.34
2019-05-12T20:47:55.518Z,101821.61
2019-05-12T20:52:58.944Z,101826.45
2019-05-12T20:58:00.610Z,101826.23
2019-05-12T21:03:04.236Z,101827.20
2019-05-12T21:08:11.725Z,101829.53
2019-05-12T21:13:09.163Z,101833.91
2019-05-12T21:18:10.710Z,101834.70
2019-05-12T21:23:13.529Z,101837.74
2019-05-12T21:28:15.367Z,101838.72
2019-05-12T21:33:17.146Z,101846.45
2019-05-12T21:38:24.112Z,101846.95
2019-05-12T21:43:22.186Z,101850.94
2019-05-12T21:48:26.529Z,101856.03
2019-05-12T21:53:27.263Z,101862.19
2019-05-12T21:58:28.946Z,101867.83
2019-05-12T22:03:30.580Z,101876.37
2019-05-12T22:08:33.805Z,101880.10
2019-05-12T22:13:35.740Z,101880.48
2019-05-12T22:18:37.415Z,101880.97
2019-05-12T22:23:42.678Z,101882.55
2019-05-12T22:28:46.636Z,101889.62
2019-05-12T22:33:51.526Z,101887.46
2019-05-12T22:38:54.313Z,101895.86
2019-05-12T22:43:53.828Z,101893.48
2019-05-12T22:48:55.573Z,101903.91
2019-05-12T22:54:00.478Z,101897.30
2019-05-12T22:59:01.569Z,101906.19
2019-05-12T23:04:03.900Z,101906.90
2019-05-12T23:09:06.242Z,101915.28
2019-05-12T23:14:12.617Z,101917.42
2019-05-12T23:19:12.280Z,101922.56
2019-05-12T23:24:14.786Z,101928.88
2019-05-12T23:29:20.392Z,101931.78
2019-05-12T23:34:19.803Z,101942.31
2019-05-12T23:39:23.437Z,101941.72
2019-05-12T23:44:24.931Z,101943.72
2019-05-12T23:49:26.510Z,101951.36
2019-05-12T23:54:28.177Z,101949.80
2019-05-12T23:59:29.727Z,101953.59
